sensor_id;sensor_type;location;lat;lon;timestamp;pressure;altitude;pressure_sealevel;temperature;humidity
13013;BME280;22580;57.670;12.006;2023-05-03T00:00:14;101940.28;;;16.01;60.26
13013;BME280;22580;57.670;12.006;2023-05-03T00:02:45;101948.56;;;16.11;59.91
13013;BME280;22580;57.670;12.006;2023-05-03T00:05:13;101961.34;;;15.96;60.77
13013;BME280;22580;57.670;12.006;2023-05-03T00:07:43;101962.88;;;15.51;61.61
13013;BME280;22580;57.670;12.006;2023-05-03T00:10:13;101967.09;;;15.91;60.77
13013;BME280;22580;57.670;12.006;2023-05-03T00:12:42;101971.31;;;15.83;61.19
13013;BME280;22580;57.670;12.006;2023-05-03T00:15:09;101978.66;;;15.19;63.63
13013;BME280;22580;57.670;12.006;2023-05-03T00:17:36;101965.59;;;15.25;63.53
13013;BME280;22580;57.670;12.006;2023-05-03T00:20:05;101969.69;;;15.44;63.07
13013;BME280;22580;57.670;12.006;2023-05-03T00:22:32;101960.41;;;15.48;62.90
13013;BME280;22580;57.670;12.006;2023-05-03T00:25:00;101915.72;;;15.20;62.68
13013;BME280;22580;57.670;12.006;2023-05-03T00:27:28;101955.75;;;15.50;62.37
13013;BME280;22580;57.670;12.006;2023-05-03T00:29:55;101985.09;;;15.91;61.54
13013;BME280;22580;57.670;12.006;2023-05-03T00:32:22;101991.16;;;15.58;63.18
13013;BME280;22580;57.670;12.006;2023-05-03T00:34:52;101999.88;;;15.23;64.64
13013;BME280;22580;57.670;12.006;2023-05-03T00:37:19;101960.34;;;15.11;65.88
13013;BME280;22580;57.670;12.006;2023-05-03T00:39:48;101990.91;;;15.48;65.05
13013;BME280;22580;57.670;12.006;2023-05-03T00:42:18;101995.84;;;15.67;64.13
13013;BME280;22580;57.670;12.006;2023-05-03T00:44:49;101983.31;;;15.79;63.53
13013;BME280;22580;57.670;12.006;2023-05-03T00:47:16;101993.09;;;15.80;63.29
13013;BME280;22580;57.670;12.006;2023-05-03T00:49:43;101959.72;;;15.69;62.44
13013;BME280;22580;57.670;12.006;2023-05-03T00:52:10;101993.75;;;15.83;62.08
13013;BME280;22580;57.670;12.006;2023-05-03T00:54:38;101996.78;;;15.79;62.13
13013;BME280;22580;57.670;12.006;2023-05-03T00:57:06;101972.38;;;15.44;62.68
13013;BME280;22580;57.670;12.006;2023-05-03T00:59:34;101985.41;;;15.50;63.28
13013;BME280;22580;57.670;12.006;2023-05-03T01:02:02;101989.03;;;15.74;62.69
13013;BME280;22580;57.670;12.006;2023-05-03T01:04:29;101985.53;;;15.48;62.88
13013;BME280;22580;57.670;12.006;2023-05-03T01:07:04;101989.06;;;15.49;63.24
13013;BME280;22580;57.670;12.006;2023-05-03T01:09:39;101981.75;;;15.38;63.46
13013;BME280;22580;57.670;12.006;2023-05-03T01:12:18;101984.34;;;15.39;63.31
13013;BME280;22580;57.670;12.006;2023-05-03T01:14:53;101997.06;;;15.37;63.15
13013;BME280;22580;57.670;12.006;2023-05-03T01:17:27;102006.66;;;15.29;63.74
13013;BME280;22580;57.670;12.006;2023-05-03T01:19:57;101999.56;;;15.90;61.23
13013;BME280;22580;57.670;12.006;2023-05-03T01:22:31;101993.13;;;15.67;61.75
13013;BME280;22580;57.670;12.006;2023-05-03T01:25:05;101975.22;;;15.79;60.79
13013;BME280;22580;57.670;12.006;2023-05-03T01:27:33;102013.00;;;16.02;60.04
13013;BME280;22580;57.670;12.006;2023-05-03T01:30:02;101992.88;;;15.59;61.14
13013;BME280;22580;57.670;12.006;2023-05-03T01:32:36;101966.31;;;15.53;60.54
13013;BME280;22580;57.670;12.006;2023-05-03T01:35:10;102000.03;;;15.71;60.01
13013;BME280;22580;57.670;12.006;2023-05-03T01:37:39;102004.56;;;15.70;59.88
13013;BME280;22580;57.670;12.006;2023-05-03T01:40:10;102017.19;;;15.70;59.89
13013;BME280;22580;57.670;12.006;2023-05-03T01:42:41;102012.66;;;15.70;59.94
13013;BME280;22580;57.670;12.006;2023-05-03T01:45:10;102014.94;;;15.64;59.84
13013;BME280;22580;57.670;12.006;2023-05-03T01:47:37;102020.22;;;15.65;59.98
13013;BME280;22580;57.670;12.006;2023-05-03T01:50:05;102019.59;;;15.36;60.92
13013;BME280;22580;57.670;12.006;2023-05-03T01:52:32;102007.41;;;15.44;60.59
13013;BME280;22580;57.670;12.006;2023-05-03T01:54:59;101986.72;;;15.44;59.71
13013;BME280;22580;57.670;12.006;2023-05-03T01:57:27;102011.28;;;15.52;59.59
13013;BME280;22580;57.670;12.006;2023-05-03T01:59:54;101998.16;;;15.35;59.75
13013;BME280;22580;57.670;12.006;2023-05-03T02:02:21;102028.00;;;15.57;59.41
13013;BME280;22580;57.670;12.006;2023-05-03T02:04:51;102021.41;;;15.61;59.07
13013;BME280;22580;57.670;12.006;2023-05-03T02:07:18;102027.66;;;15.62;59.27
13013;BME280;22580;57.670;12.006;2023-05-03T02:09:45;102011.28;;;15.14;60.03
13013;BME280;22580;57.670;12.006;2023-05-03T02:12:12;102031.75;;;15.04;60.86
13013;BME280;22580;57.670;12.006;2023-05-03T02:14:40;102028.97;;;15.05;60.83
13013;BME280;22580;57.670;12.006;2023-05-03T02:17:07;102021.84;;;15.30;60.10
13013;BME280;22580;57.670;12.006;2023-05-03T02:19:34;102006.88;;;15.00;60.24
13013;BME280;22580;57.670;12.006;2023-05-03T02:22:01;102045.13;;;15.31;59.97
13013;BME280;22580;57.670;12.006;2023-05-03T02:24:28;102047.19;;;15.40;59.33
13013;BME280;22580;57.670;12.006;2023-05-03T02:26:56;102059.47;;;15.31;58.79
13013;BME280;22580;57.670;12.006;2023-05-03T02:29:23;102054.19;;;15.30;58.92
13013;BME280;22580;57.670;12.006;2023-05-03T02:31:51;102055.38;;;15.26;58.62
13013;BME280;22580;57.670;12.006;2023-05-03T02:34:18;102061.34;;;14.91;59.58
13013;BME280;22580;57.670;12.006;2023-05-03T02:36:45;102052.38;;;14.78;59.97
13013;BME280;22580;57.670;12.006;2023-05-03T02:39:12;102012.41;;;14.47;60.53
13013;BME280;22580;57.670;12.006;2023-05-03T02:41:39;102041.06;;;14.60;60.54
13013;BME280;22580;57.670;12.006;2023-05-03T02:44:06;102071.41;;;15.02;59.40
13013;BME280;22580;57.670;12.006;2023-05-03T02:46:34;102027.63;;;14.86;58.94
13013;BME280;22580;57.670;12.006;2023-05-03T02:49:03;102041.66;;;15.03;58.69
13013;BME280;22580;57.670;12.006;2023-05-03T02:51:30;102077.22;;;15.08;58.54
13013;BME280;22580;57.670;12.006;2023-05-03T02:53:57;102070.09;;;14.95;58.93
13013;BME280;22580;57.670;12.006;2023-05-03T02:56:24;102075.81;;;15.03;58.91
13013;BME280;22580;57.670;12.006;2023-05-03T02:58:52;102072.59;;;15.11;58.19
13013;BME280;22580;57.670;12.006;2023-05-03T03:01:19;102077.22;;;15.08;58.07
13013;BME280;22580;57.670;12.006;2023-05-03T03:03:46;102082.59;;;15.08;58.15
13013;BME280;22580;57.670;12.006;2023-05-03T03:06:15;102071.41;;;15.02;58.42
13013;BME280;22580;57.670;12.006;2023-05-03T03:08:42;102084.44;;;15.08;58.55
13013;BME280;22580;57.670;12.006;2023-05-03T03:11:09;102088.06;;;14.94;58.96
13013;BME280;22580;57.670;12.006;2023-05-03T03:13:36;102081.59;;;14.84;58.94
13013;BME280;22580;57.670;12.006;2023-05-03T03:16:05;102093.88;;;14.88;59.36
13013;BME280;22580;57.670;12.006;2023-05-03T03:18:43;102090.59;;;15.10;58.70
13013;BME280;22580;57.670;12.006;2023-05-03T03:21:10;102089.19;;;15.17;58.22
13013;BME280;22580;57.670;12.006;2023-05-03T03:23:41;102083.91;;;15.16;58.15
13013;BME280;22580;57.670;12.006;2023-05-03T03:26:08;102094.59;;;15.17;58.05
13013;BME280;22580;57.670;12.006;2023-05-03T03:28:35;102096.53;;;15.28;57.98
13013;BME280;22580;57.670;12.006;2023-05-03T03:31:01;102092.34;;;15.36;57.24
13013;BME280;22580;57.670;12.006;2023-05-03T03:33:28;102093.22;;;15.50;56.82
13013;BME280;22580;57.670;12.006;2023-05-03T03:35:56;102093.19;;;15.37;56.97
13013;BME280;22580;57.670;12.006;2023-05-03T03:38:22;102103.34;;;15.33;56.94
13013;BME280;22580;57.670;12.006;2023-05-03T03:40:51;102088.13;;;15.20;57.13
13013;BME280;22580;57.670;12.006;2023-05-03T03:43:18;102114.63;;;15.13;57.61
13013;BME280;22580;57.670;12.006;2023-05-03T03:45:45;102111.19;;;15.24;57.48
13013;BME280;22580;57.670;12.006;2023-05-03T03:48:13;102111.72;;;15.16;57.84
13013;BME280;22580;57.670;12.006;2023-05-03T03:50:40;102094.25;;;15.09;57.88
13013;BME280;22580;57.670;12.006;2023-05-03T03:53:07;102109.03;;;15.29;57.10
13013;BME280;22580;57.670;12.006;2023-05-03T03:55:36;102106.13;;;15.19;57.10
13013;BME280;22580;57.670;12.006;2023-05-03T03:58:04;102102.13;;;15.12;57.28
13013;BME280;22580;57.670;12.006;2023-05-03T04:00:33;102119.66;;;15.05;57.54
13013;BME280;22580;57.670;12.006;2023-05-03T04:03:00;102083.31;;;14.85;58.09
13013;BME280;22580;57.670;12.006;2023-05-03T04:05:27;102120.53;;;15.05;57.60
13013;BME280;22580;57.670;12.006;2023-05-03T04:07:57;102127.75;;;15.05;57.59
13013;BME280;22580;57.670;12.006;2023-05-03T04:10:24;102117.13;;;14.89;57.70
13013;BME280;22580;57.670;12.006;2023-05-03T04:12:50;102132.53;;;14.87;57.94
13013;BME280;22580;57.670;12.006;2023-05-03T04:15:19;102097.75;;;14.84;57.77
13013;BME280;22580;57.670;12.006;2023-05-03T04:17:46;102126.53;;;14.96;57.73
13013;BME280;22580;57.670;12.006;2023-05-03T04:20:15;102121.47;;;14.92;57.85
13013;BME280;22580;57.670;12.006;2023-05-03T04:22:42;102125.66;;;14.96;58.41
13013;BME280;22580;57.670;12.006;2023-05-03T04:25:10;102123.13;;;15.07;58.22
13013;BME280;22580;57.670;12.006;2023-05-03T04:27:39;102132.53;;;14.87;59.55
13013;BME280;22580;57.670;12.006;2023-05-03T04:30:07;102127.50;;;14.56;60.66
13013;BME280;22580;57.670;12.006;2023-05-03T04:32:35;102135.81;;;15.05;59.17
13013;BME280;22580;57.670;12.006;2023-05-03T04:35:05;102137.25;;;15.23;58.68
13013;BME280;22580;57.670;12.006;2023-05-03T04:37:35;102145.91;;;15.28;58.58
13013;BME280;22580;57.670;12.006;2023-05-03T04:40:02;102138.13;;;14.84;59.84
13013;BME280;22580;57.670;12.006;2023-05-03T04:42:32;102141.72;;;15.37;58.67
13013;BME280;22580;57.670;12.006;2023-05-03T04:45:00;102140.28;;;14.38;62.64
13013;BME280;22580;57.670;12.006;2023-05-03T04:47:31;102138.97;;;14.72;61.53
13013;BME280;22580;57.670;12.006;2023-05-03T04:49:59;102151.78;;;14.81;61.07
13013;BME280;22580;57.670;12.006;2023-05-03T04:52:27;102150.81;;;15.09;60.74
13013;BME280;22580;57.670;12.006;2023-05-03T04:54:54;102162.28;;;15.25;60.54
13013;BME280;22580;57.670;12.006;2023-05-03T04:57:21;102160.78;;;15.47;59.46
13013;BME280;22580;57.670;12.006;2023-05-03T04:59:48;102156.44;;;15.58;59.22
13013;BME280;22580;57.670;12.006;2023-05-03T05:02:15;102172.47;;;15.72;59.05
13013;BME280;22580;57.670;12.006;2023-05-03T05:04:42;102172.16;;;15.77;58.61
13013;BME280;22580;57.670;12.006;2023-05-03T05:07:11;102170.63;;;15.86;58.40
13013;BME280;22580;57.670;12.006;2023-05-03T05:09:39;102172.91;;;15.92;57.89
13013;BME280;22580;57.670;12.006;2023-05-03T05:12:06;102177.53;;;15.90;58.20
13013;BME280;22580;57.670;12.006;2023-05-03T05:14:33;102181.22;;;16.01;58.54
13013;BME280;22580;57.670;12.006;2023-05-03T05:17:01;102168.78;;;15.99;59.62
13013;BME280;22580;57.670;12.006;2023-05-03T05:19:28;102163.13;;;16.40;58.11
13013;BME280;22580;57.670;12.006;2023-05-03T05:21:55;102175.31;;;16.46;58.28
13013;BME280;22580;57.670;12.006;2023-05-03T05:24:24;102168.69;;;16.50;58.01
13013;BME280;22580;57.670;12.006;2023-05-03T05:26:51;102171.75;;;16.45;58.30
13013;BME280;22580;57.670;12.006;2023-05-03T05:29:18;102181.72;;;16.32;59.22
13013;BME280;22580;57.670;12.006;2023-05-03T05:31:44;102177.38;;;16.42;59.74
13013;BME280;22580;57.670;12.006;2023-05-03T05:34:11;102186.69;;;16.62;59.68
13013;BME280;22580;57.670;12.006;2023-05-03T05:36:38;102175.41;;;16.81;67.94
13013;BME280;22580;57.670;12.006;2023-05-03T05:39:05;102184.66;;;17.59;65.65
13013;BME280;22580;57.670;12.006;2023-05-03T05:41:34;102182.28;;;17.90;64.42
13013;BME280;22580;57.670;12.006;2023-05-03T05:44:01;102193.97;;;17.33;62.46
13013;BME280;22580;57.670;12.006;2023-05-03T05:46:28;102192.13;;;17.91;58.88
13013;BME280;22580;57.670;12.006;2023-05-03T05:48:55;102201.34;;;17.88;58.27
13013;BME280;22580;57.670;12.006;2023-05-03T05:51:22;102192.28;;;18.00;57.72
13013;BME280;22580;57.670;12.006;2023-05-03T05:53:49;102199.16;;;17.93;58.02
13013;BME280;22580;57.670;12.006;2023-05-03T05:56:16;102196.53;;;17.69;58.56
13013;BME280;22580;57.670;12.006;2023-05-03T05:58:45;102210.94;;;17.46;59.12
13013;BME280;22580;57.670;12.006;2023-05-03T06:01:12;102208.69;;;17.29;60.64
13013;BME280;22580;57.670;12.006;2023-05-03T06:03:39;102210.66;;;17.03;61.11
13013;BME280;22580;57.670;12.006;2023-05-03T06:06:06;102226.69;;;17.17;62.12
13013;BME280;22580;57.670;12.006;2023-05-03T06:08:34;102220.91;;;17.81;60.05
13013;BME280;22580;57.670;12.006;2023-05-03T06:11:01;102186.44;;;17.72;59.43
13013;BME280;22580;57.670;12.006;2023-05-03T06:13:28;102188.09;;;18.08;57.42
13013;BME280;22580;57.670;12.006;2023-05-03T06:15:58;102199.38;;;18.35;56.67
13013;BME280;22580;57.670;12.006;2023-05-03T06:18:25;102224.88;;;18.66;55.91
13013;BME280;22580;57.670;12.006;2023-05-03T06:20:53;102235.69;;;18.77;55.30
13013;BME280;22580;57.670;12.006;2023-05-03T06:23:20;102234.84;;;18.77;54.83
13013;BME280;22580;57.670;12.006;2023-05-03T06:25:48;102239.16;;;18.68;55.07
13013;BME280;22580;57.670;12.006;2023-05-03T06:28:15;102233.47;;;18.60;55.58
13013;BME280;22580;57.670;12.006;2023-05-03T06:30:47;102251.22;;;18.19;56.87
13013;BME280;22580;57.670;12.006;2023-05-03T06:33:16;102244.31;;;18.15;57.55
13013;BME280;22580;57.670;12.006;2023-05-03T06:35:43;102243.94;;;18.53;56.36
13013;BME280;22580;57.670;12.006;2023-05-03T06:38:11;102239.94;;;19.34;56.79
13013;BME280;22580;57.670;12.006;2023-05-03T06:40:38;102238.25;;;19.22;56.03
13013;BME280;22580;57.670;12.006;2023-05-03T06:43:06;102245.69;;;19.52;54.40
13013;BME280;22580;57.670;12.006;2023-05-03T06:45:33;102242.56;;;19.98;53.22
13013;BME280;22580;57.670;12.006;2023-05-03T06:48:00;102218.38;;;19.85;51.07
13013;BME280;22580;57.670;12.006;2023-05-03T06:50:28;102249.72;;;19.99;50.81
13013;BME280;22580;57.670;12.006;2023-05-03T06:52:55;102244.31;;;20.29;49.94
13013;BME280;22580;57.670;12.006;2023-05-03T06:55:22;102243.94;;;20.84;48.99
13013;BME280;22580;57.670;12.006;2023-05-03T06:57:49;102240.34;;;20.64;49.08
13013;BME280;22580;57.670;12.006;2023-05-03T07:00:17;102249.03;;;20.58;47.32
13013;BME280;22580;57.670;12.006;2023-05-03T07:02:45;102235.75;;;20.65;47.09
13013;BME280;22580;57.670;12.006;2023-05-03T07:05:14;102237.31;;;21.55;45.41
13013;BME280;22580;57.670;12.006;2023-05-03T07:07:42;102257.75;;;21.79;43.50
13013;BME280;22580;57.670;12.006;2023-05-03T07:10:09;102234.59;;;21.55;42.32
13013;BME280;22580;57.670;12.006;2023-05-03T07:12:37;102234.03;;;21.42;42.03
13013;BME280;22580;57.670;12.006;2023-05-03T07:15:05;102244.34;;;21.29;41.24
13013;BME280;22580;57.670;12.006;2023-05-03T07:17:32;102256.91;;;21.78;40.40
13013;BME280;22580;57.670;12.006;2023-05-03T07:19:59;102260.03;;;22.12;39.91
13013;BME280;22580;57.670;12.006;2023-05-03T07:22:26;102205.03;;;21.80;39.32
13013;BME280;22580;57.670;12.006;2023-05-03T07:24:54;102259.63;;;22.72;37.74
13013;BME280;22580;57.670;12.006;2023-05-03T07:27:23;102253.88;;;22.75;38.05
13013;BME280;22580;57.670;12.006;2023-05-03T07:29:50;102253.84;;;22.84;38.44
13013;BME280;22580;57.670;12.006;2023-05-03T07:32:18;102256.56;;;23.12;37.62
13013;BME280;22580;57.670;12.006;2023-05-03T07:34:46;102260.78;;;22.42;37.36
13013;BME280;22580;57.670;12.006;2023-05-03T07:37:13;102256.47;;;22.49;37.15
13013;BME280;22580;57.670;12.006;2023-05-03T07:39:40;102258.69;;;22.91;36.13
13013;BME280;22580;57.670;12.006;2023-05-03T07:42:08;102251.56;;;22.52;36.56
13013;BME280;22580;57.670;12.006;2023-05-03T07:44:35;102248.84;;;22.52;37.18
13013;BME280;22580;57.670;12.006;2023-05-03T07:47:02;102253.84;;;23.30;35.99
13013;BME280;22580;57.670;12.006;2023-05-03T07:49:29;102236.72;;;23.45;35.34
13013;BME280;22580;57.670;12.006;2023-05-03T07:52:00;102238.88;;;22.61;30.11
13013;BME280;22580;57.670;12.006;2023-05-03T07:54:27;102262.06;;;22.47;30.37
13013;BME280;22580;57.670;12.006;2023-05-03T07:56:54;102259.16;;;22.76;30.34
13013;BME280;22580;57.670;12.006;2023-05-03T07:59:22;102272.47;;;22.24;29.26
13013;BME280;22580;57.670;12.006;2023-05-03T08:01:49;102264.75;;;21.14;29.98
13013;BME280;22580;57.670;12.006;2023-05-03T08:04:16;102274.75;;;21.04;30.33
13013;BME280;22580;57.670;12.006;2023-05-03T08:06:43;102273.19;;;21.11;30.71
13013;BME280;22580;57.670;12.006;2023-05-03T08:09:10;102250.69;;;20.80;29.29
13013;BME280;22580;57.670;12.006;2023-05-03T08:11:38;102270.59;;;20.50;29.25
13013;BME280;22580;57.670;12.006;2023-05-03T08:14:05;102251.22;;;21.43;29.60
13013;BME280;22580;57.670;12.006;2023-05-03T08:16:33;102250.50;;;21.50;29.05
13013;BME280;22580;57.670;12.006;2023-05-03T08:19:00;102277.81;;;21.78;29.14
13013;BME280;22580;57.670;12.006;2023-05-03T08:21:29;102254.47;;;20.58;28.09
13013;BME280;22580;57.670;12.006;2023-05-03T08:23:57;102282.53;;;21.85;28.54
13013;BME280;22580;57.670;12.006;2023-05-03T08:26:25;102292.72;;;20.85;27.66
13013;BME280;22580;57.670;12.006;2023-05-03T08:28:53;102244.78;;;21.34;27.01
13013;BME280;22580;57.670;12.006;2023-05-03T08:31:21;102231.66;;;20.80;28.58
13013;BME280;22580;57.670;12.006;2023-05-03T08:33:50;102284.59;;;21.54;28.36
13013;BME280;22580;57.670;12.006;2023-05-03T08:36:17;102291.16;;;21.81;28.84
13013;BME280;22580;57.670;12.006;2023-05-03T08:38:44;102282.72;;;21.65;28.62
13013;BME280;22580;57.670;12.006;2023-05-03T08:41:17;102284.72;;;20.44;29.39
13013;BME280;22580;57.670;12.006;2023-05-03T08:43:51;102289.28;;;20.74;30.00
13013;BME280;22580;57.670;12.006;2023-05-03T08:46:18;102305.97;;;20.59;29.54
13013;BME280;22580;57.670;12.006;2023-05-03T08:48:47;102292.94;;;21.03;29.00
13013;BME280;22580;57.670;12.006;2023-05-03T08:51:16;102298.75;;;21.29;28.83
13013;BME280;22580;57.670;12.006;2023-05-03T08:53:44;102302.63;;;21.36;28.63
13013;BME280;22580;57.670;12.006;2023-05-03T08:56:15;102300.56;;;21.19;28.73
13013;BME280;22580;57.670;12.006;2023-05-03T08:58:45;102271.06;;;21.14;28.43
13013;BME280;22580;57.670;12.006;2023-05-03T09:01:12;102301.03;;;21.72;28.43
13013;BME280;22580;57.670;12.006;2023-05-03T09:03:47;102314.19;;;20.88;28.87
13013;BME280;22580;57.670;12.006;2023-05-03T09:06:20;102314.81;;;21.02;28.75
13013;BME280;22580;57.670;12.006;2023-05-03T09:08:50;102318.47;;;20.81;29.23
13013;BME280;22580;57.670;12.006;2023-05-03T09:11:21;102290.34;;;20.31;29.79
13013;BME280;22580;57.670;12.006;2023-05-03T09:13:49;102274.69;;;19.72;30.47
13013;BME280;22580;57.670;12.006;2023-05-03T09:16:26;102315.84;;;20.19;30.64
13013;BME280;22580;57.670;12.006;2023-05-03T09:18:58;102325.09;;;18.66;31.94
13013;BME280;22580;57.670;12.006;2023-05-03T09:21:27;102330.53;;;18.09;33.51
13013;BME280;22580;57.670;12.006;2023-05-03T09:23:55;102316.53;;;18.15;33.18
13013;BME280;22580;57.670;12.006;2023-05-03T09:26:27;102328.94;;;20.86;30.07
13013;BME280;22580;57.670;12.006;2023-05-03T09:28:54;102317.09;;;21.46;28.94
13013;BME280;22580;57.670;12.006;2023-05-03T09:31:21;102331.66;;;20.86;29.60
13013;BME280;22580;57.670;12.006;2023-05-03T09:33:48;102325.38;;;20.55;29.75
13013;BME280;22580;57.670;12.006;2023-05-03T09:36:16;102320.19;;;20.82;29.98
13013;BME280;22580;57.670;12.006;2023-05-03T09:38:45;102326.03;;;21.18;29.74
13013;BME280;22580;57.670;12.006;2023-05-03T09:41:12;102330.59;;;20.68;29.53
13013;BME280;22580;57.670;12.006;2023-05-03T09:43:47;102335.00;;;20.17;30.21
13013;BME280;22580;57.670;12.006;2023-05-03T09:46:15;102313.94;;;20.10;31.10
13013;BME280;22580;57.670;12.006;2023-05-03T09:48:42;102317.59;;;21.21;30.34
13013;BME280;22580;57.670;12.006;2023-05-03T09:51:10;102308.59;;;20.80;29.58
13013;BME280;22580;57.670;12.006;2023-05-03T09:53:39;102320.31;;;20.41;30.09
13013;BME280;22580;57.670;12.006;2023-05-03T09:56:08;102338.84;;;20.15;30.74
13013;BME280;22580;57.670;12.006;2023-05-03T09:58:37;102340.16;;;20.20;29.30
13013;BME280;22580;57.670;12.006;2023-05-03T10:01:05;102340.63;;;20.25;29.50
13013;BME280;22580;57.670;12.006;2023-05-03T10:03:39;102346.84;;;20.58;29.00
13013;BME280;22580;57.670;12.006;2023-05-03T10:06:23;102322.81;;;20.93;29.15
13013;BME280;22580;57.670;12.006;2023-05-03T10:08:52;102314.16;;;19.76;30.54
13013;BME280;22580;57.670;12.006;2023-05-03T10:11:27;102307.38;;;19.27;31.12
13013;BME280;22580;57.670;12.006;2023-05-03T10:13:55;102353.59;;;19.26;30.54
13013;BME280;22580;57.670;12.006;2023-05-03T10:16:25;102326.41;;;19.59;29.76
13013;BME280;22580;57.670;12.006;2023-05-03T10:18:57;102330.91;;;19.38;30.17
13013;BME280;22580;57.670;12.006;2023-05-03T10:21:34;102310.22;;;19.26;30.35
13013;BME280;22580;57.670;12.006;2023-05-03T10:24:12;102335.69;;;19.57;30.78
13013;BME280;22580;57.670;12.006;2023-05-03T10:26:43;102340.63;;;20.05;31.35
13013;BME280;22580;57.670;12.006;2023-05-03T10:29:46;102346.84;;;20.58;30.69
13013;BME280;22580;57.670;12.006;2023-05-03T10:32:33;102348.78;;;19.84;29.55
13013;BME280;22580;57.670;12.006;2023-05-03T10:35:02;102334.78;;;20.30;29.80
13013;BME280;22580;57.670;12.006;2023-05-03T10:37:39;102314.13;;;19.97;29.70
13013;BME280;22580;57.670;12.006;2023-05-03T10:40:11;102360.91;;;20.42;29.82
13013;BME280;22580;57.670;12.006;2023-05-03T10:42:42;102341.25;;;20.90;28.35
13013;BME280;22580;57.670;12.006;2023-05-03T10:45:21;102346.44;;;21.03;28.61
13013;BME280;22580;57.670;12.006;2023-05-03T10:48:16;102348.72;;;20.98;28.53
13013;BME280;22580;57.670;12.006;2023-05-03T10:50:47;102342.16;;;21.69;28.06
13013;BME280;22580;57.670;12.006;2023-05-03T10:53:36;102360.69;;;20.13;29.81
13013;BME280;22580;57.670;12.006;2023-05-03T10:56:05;102344.69;;;20.92;28.32
13013;BME280;22580;57.670;12.006;2023-05-03T10:58:37;102359.38;;;19.87;29.48
13013;BME280;22580;57.670;12.006;2023-05-03T11:01:04;102346.13;;;20.14;30.09
13013;BME280;22580;57.670;12.006;2023-05-03T11:03:42;102319.31;;;20.21;28.58
13013;BME280;22580;57.670;12.006;2023-05-03T11:06:26;102318.25;;;20.12;28.78
13013;BME280;22580;57.670;12.006;2023-05-03T11:08:53;102348.75;;;21.67;30.13
13013;BME280;22580;57.670;12.006;2023-05-03T11:11:20;102366.44;;;19.99;27.74
13013;BME280;22580;57.670;12.006;2023-05-03T11:13:51;102354.41;;;18.94;29.94
13013;BME280;22580;57.670;12.006;2023-05-03T11:16:19;102361.06;;;21.51;27.35
13013;BME280;22580;57.670;12.006;2023-05-03T11:18:46;102363.78;;;21.90;26.46
13013;BME280;22580;57.670;12.006;2023-05-03T11:21:14;102363.50;;;22.22;25.79
13013;BME280;22580;57.670;12.006;2023-05-03T11:23:41;102341.97;;;20.52;28.01
13013;BME280;22580;57.670;12.006;2023-05-03T11:26:09;102367.84;;;20.35;27.93
13013;BME280;22580;57.670;12.006;2023-05-03T11:28:37;102363.31;;;21.27;26.32
13013;BME280;22580;57.670;12.006;2023-05-03T11:31:05;102366.53;;;20.81;27.22
13013;BME280;22580;57.670;12.006;2023-05-03T11:33:33;102364.38;;;21.65;26.56
13013;BME280;22580;57.670;12.006;2023-05-03T11:36:00;102367.44;;;21.21;26.53
13013;BME280;22580;57.670;12.006;2023-05-03T11:38:29;102367.41;;;20.81;26.25
13013;BME280;22580;57.670;12.006;2023-05-03T11:40:56;102364.53;;;22.02;25.99
13013;BME280;22580;57.670;12.006;2023-05-03T11:43:24;102361.22;;;21.88;24.92
13013;BME280;22580;57.670;12.006;2023-05-03T11:45:54;102356.16;;;22.42;24.92
13013;BME280;22580;57.670;12.006;2023-05-03T11:48:24;102367.06;;;21.45;26.59
13013;BME280;22580;57.670;12.006;2023-05-03T11:50:53;102355.66;;;20.81;27.28
13013;BME280;22580;57.670;12.006;2023-05-03T11:53:22;102369.59;;;20.57;27.70
13013;BME280;22580;57.670;12.006;2023-05-03T11:55:51;102371.94;;;19.88;27.49
13013;BME280;22580;57.670;12.006;2023-05-03T11:58:20;102355.59;;;21.02;25.93
13013;BME280;22580;57.670;12.006;2023-05-03T12:00:49;102367.94;;;19.71;27.12
13013;BME280;22580;57.670;12.006;2023-05-03T12:03:16;102381.25;;;19.74;27.24
13013;BME280;22580;57.670;12.006;2023-05-03T12:05:47;102360.66;;;21.16;26.47
13013;BME280;22580;57.670;12.006;2023-05-03T12:08:14;102375.00;;;20.78;26.02
13013;BME280;22580;57.670;12.006;2023-05-03T12:10:43;102345.72;;;20.19;27.18
13013;BME280;22580;57.670;12.006;2023-05-03T12:13:10;102339.03;;;18.04;28.62
13013;BME280;22580;57.670;12.006;2023-05-03T12:15:38;102389.53;;;19.50;27.75
13013;BME280;22580;57.670;12.006;2023-05-03T12:18:08;102366.25;;;20.33;27.24
13013;BME280;22580;57.670;12.006;2023-05-03T12:20:37;102372.38;;;19.72;28.90
13013;BME280;22580;57.670;12.006;2023-05-03T12:23:07;102371.69;;;20.84;26.86
13013;BME280;22580;57.670;12.006;2023-05-03T12:25:35;102362.81;;;22.10;25.62
13013;BME280;22580;57.670;12.006;2023-05-03T12:28:03;102375.13;;;22.24;24.93
13013;BME280;22580;57.670;12.006;2023-05-03T12:30:32;102369.25;;;22.75;24.71
13013;BME280;22580;57.670;12.006;2023-05-03T12:32:59;102377.84;;;22.24;24.17
13013;BME280;22580;57.670;12.006;2023-05-03T12:35:26;102379.16;;;22.10;24.88
13013;BME280;22580;57.670;12.006;2023-05-03T12:37:53;102391.31;;;21.18;25.54
13013;BME280;22580;57.670;12.006;2023-05-03T12:40:21;102380.91;;;20.20;26.69
13013;BME280;22580;57.670;12.006;2023-05-03T12:42:52;102373.97;;;21.59;25.99
13013;BME280;22580;57.670;12.006;2023-05-03T12:45:20;102370.09;;;21.81;25.21
13013;BME280;22580;57.670;12.006;2023-05-03T12:47:47;102375.88;;;22.63;24.67